DAL8891 KSAN-KMKE
Flight info
| Callsign | DAL8891 |
|---|---|
| Flight time | N/A |
| Altitude | 37000 |
| Route | ZZOOO4 MTBAL LANCY J78 DRK FLG KD36Q KD45U SKWYR KD60A OVR JORDY OGECA GOPAC3 |
| Aircraft | A321/M-SDE3FGHIRWY/LB1 |
Departure
| Time | 2026-05-05 21:55 |
|---|---|
| Airport | San Diego International Airport (KSAN) |
Arrival
| Time | N/A |
|---|---|
| Airport | General Mitchell International Airport (KMKE) |
| Time | Latitude | Longitude | Altitude | Speed | Heading |
|---|---|---|---|---|---|
| 2026-05-05 21:40 | 32.73462 | -117.18620 | 24 ft | 0 kts | 197° |
| 2026-05-05 21:52 | 32.73366 | -117.18534 | 25 ft | 19 kts | 106° |
| 2026-05-05 21:52 | 32.73324 | -117.18358 | 24 ft | 24 kts | 106° |
| 2026-05-05 21:52 | 32.73278 | -117.18171 | 23 ft | 23 kts | 106° |
| 2026-05-05 21:53 | 32.73234 | -117.17990 | 22 ft | 23 kts | 106° |
| 2026-05-05 21:53 | 32.73191 | -117.17813 | 23 ft | 22 kts | 106° |
| 2026-05-05 21:53 | 32.73149 | -117.17646 | 23 ft | 21 kts | 105° |
| 2026-05-05 21:53 | 32.73070 | -117.17531 | 22 ft | 17 kts | 155° |
| 2026-05-05 21:54 | 32.73025 | -117.17599 | 22 ft | 15 kts | 285° |
| 2026-05-05 21:54 | 32.73068 | -117.17771 | 21 ft | 43 kts | 285° |
| 2026-05-05 21:54 | 32.73217 | -117.18389 | 26 ft | 108 kts | 286° |
| 2026-05-05 21:54 | 32.73471 | -117.19437 | 57 ft | 150 kts | 286° |
| 2026-05-05 21:55 | 32.73751 | -117.20612 | 759 ft | 142 kts | 285° |
| 2026-05-05 21:55 | 32.74011 | -117.21713 | 1481 ft | 140 kts | 285° |
| 2026-05-05 21:55 | 32.74287 | -117.22870 | 2041 ft | 154 kts | 285° |
| 2026-05-05 21:55 | 32.74601 | -117.24172 | 2452 ft | 175 kts | 285° |
| 2026-05-05 21:56 | 32.74954 | -117.25626 | 2776 ft | 196 kts | 285° |
| 2026-05-05 21:56 | 32.75351 | -117.27259 | 2933 ft | 217 kts | 285° |
| 2026-05-05 21:56 | 32.75788 | -117.29057 | 3339 ft | 232 kts | 285° |
| 2026-05-05 21:56 | 32.76237 | -117.30901 | 4231 ft | 233 kts | 285° |
| 2026-05-05 21:57 | 32.76524 | -117.32790 | 5118 ft | 234 kts | 265° |
| 2026-05-05 21:57 | 32.75898 | -117.34574 | 5835 ft | 242 kts | 227° |
| 2026-05-05 21:57 | 32.74426 | -117.35543 | 6616 ft | 251 kts | 190° |
| 2026-05-05 21:57 | 32.72695 | -117.35266 | 7382 ft | 259 kts | 154° |
| 2026-05-05 21:58 | 32.71173 | -117.33958 | 7855 ft | 282 kts | 138° |
| 2026-05-05 21:58 | 32.69775 | -117.32351 | 8915 ft | 277 kts | 137° |
| 2026-05-05 21:58 | 32.68400 | -117.30747 | 9860 ft | 277 kts | 137° |
| 2026-05-05 21:58 | 32.67020 | -117.29131 | 10592 ft | 281 kts | 137° |
| 2026-05-05 21:59 | 32.65619 | -117.27490 | 11298 ft | 285 kts | 137° |
| 2026-05-05 21:59 | 32.64275 | -117.25781 | 12011 ft | 289 kts | 127° |
| 2026-05-05 21:59 | 32.63287 | -117.23682 | 12671 ft | 298 kts | 111° |
| 2026-05-05 21:59 | 32.62792 | -117.21212 | 12881 ft | 320 kts | 95° |
| 2026-05-05 22:00 | 32.62562 | -117.18488 | 13090 ft | 343 kts | 95° |
| 2026-05-05 22:00 | 32.62316 | -117.15591 | 13389 ft | 361 kts | 95° |
| 2026-05-05 22:00 | 32.62090 | -117.12598 | 14034 ft | 367 kts | 90° |
| 2026-05-05 22:00 | 32.62311 | -117.09580 | 14675 ft | 369 kts | 76° |
| 2026-05-05 22:01 | 32.63094 | -117.06679 | 15337 ft | 371 kts | 66° |
| 2026-05-05 22:01 | 32.64043 | -117.03812 | 15994 ft | 374 kts | 67° |
| 2026-05-05 22:01 | 32.64995 | -117.00923 | 16665 ft | 378 kts | 67° |
| 2026-05-05 22:01 | 32.65944 | -116.97993 | 17321 ft | 382 kts | 69° |
| 2026-05-05 22:02 | 32.66577 | -116.94908 | 17964 ft | 388 kts | 81° |
| 2026-05-05 22:02 | 32.66742 | -116.91695 | 18569 ft | 392 kts | 88° |
| 2026-05-05 22:02 | 32.66806 | -116.88488 | 19145 ft | 395 kts | 88° |
| 2026-05-05 22:02 | 32.66876 | -116.85210 | 19717 ft | 399 kts | 87° |
| 2026-05-05 22:03 | 32.67189 | -116.81938 | 20263 ft | 400 kts | 75° |
| 2026-05-05 22:03 | 32.68115 | -116.78832 | 20820 ft | 400 kts | 61° |
| 2026-05-05 22:03 | 32.69609 | -116.76058 | 21360 ft | 400 kts | 48° |
| 2026-05-05 22:03 | 32.71581 | -116.73745 | 21903 ft | 398 kts | 35° |
| 2026-05-05 22:04 | 32.73924 | -116.72016 | 22448 ft | 397 kts | 22° |
| 2026-05-05 22:04 | 32.76469 | -116.70743 | 23031 ft | 398 kts | 19° |
| 2026-05-05 22:04 | 32.79034 | -116.69497 | 23612 ft | 399 kts | 19° |
| 2026-05-05 22:04 | 32.81617 | -116.68242 | 24053 ft | 402 kts | 19° |
| 2026-05-05 22:05 | 32.84235 | -116.66966 | 24439 ft | 407 kts | 19° |
| 2026-05-05 22:05 | 32.86830 | -116.65697 | 24798 ft | 411 kts | 19° |
| 2026-05-05 22:05 | 32.89491 | -116.64389 | 25158 ft | 415 kts | 19° |
| 2026-05-05 22:05 | 32.92173 | -116.63068 | 25523 ft | 420 kts | 19° |
| 2026-05-05 22:06 | 32.94885 | -116.61731 | 25881 ft | 424 kts | 19° |
| 2026-05-05 22:06 | 32.97622 | -116.60381 | 26245 ft | 428 kts | 19° |
| 2026-05-05 22:06 | 33.00389 | -116.59020 | 26601 ft | 432 kts | 19° |
| 2026-05-05 22:06 | 33.03178 | -116.57632 | 26944 ft | 437 kts | 19° |
| 2026-05-05 22:07 | 33.05986 | -116.56188 | 27271 ft | 441 kts | 20° |
| 2026-05-05 22:07 | 33.08814 | -116.54702 | 27515 ft | 448 kts | 20° |
| 2026-05-05 22:07 | 33.11674 | -116.53183 | 27789 ft | 452 kts | 20° |
| 2026-05-05 22:07 | 33.14566 | -116.51648 | 28091 ft | 457 kts | 20° |
| 2026-05-05 22:08 | 33.17485 | -116.50105 | 28376 ft | 461 kts | 20° |
| 2026-05-05 22:08 | 33.20432 | -116.48555 | 28693 ft | 465 kts | 19° |
| 2026-05-05 22:08 | 33.23404 | -116.46998 | 28995 ft | 468 kts | 19° |
| 2026-05-05 22:08 | 33.26400 | -116.45433 | 29299 ft | 472 kts | 19° |
| 2026-05-05 22:09 | 33.29416 | -116.43856 | 29578 ft | 474 kts | 20° |
| 2026-05-05 22:09 | 33.32435 | -116.42275 | 30031 ft | 474 kts | 20° |
| 2026-05-05 22:09 | 33.35454 | -116.40661 | 30293 ft | 477 kts | 23° |
| 2026-05-05 22:09 | 33.38321 | -116.38617 | 30523 ft | 484 kts | 33° |
| 2026-05-05 22:10 | 33.40913 | -116.36013 | 30739 ft | 490 kts | 43° |
| 2026-05-05 22:10 | 33.43159 | -116.32929 | 30976 ft | 495 kts | 52° |
| 2026-05-05 22:10 | 33.45182 | -116.29571 | 31224 ft | 498 kts | 53° |
| 2026-05-05 22:10 | 33.47208 | -116.26197 | 31503 ft | 500 kts | 53° |
| 2026-05-05 22:11 | 33.49212 | -116.22853 | 31674 ft | 503 kts | 53° |
| 2026-05-05 22:11 | 33.51256 | -116.19437 | 31891 ft | 506 kts | 53° |
| 2026-05-05 22:11 | 33.53308 | -116.16009 | 32208 ft | 506 kts | 53° |
| 2026-05-05 22:11 | 33.55365 | -116.12568 | 32518 ft | 508 kts | 53° |
| 2026-05-05 22:12 | 33.57422 | -116.09124 | 32851 ft | 508 kts | 53° |
| 2026-05-05 22:12 | 33.59453 | -116.05653 | 33167 ft | 510 kts | 57° |
| 2026-05-05 22:12 | 33.61152 | -116.01918 | 33488 ft | 511 kts | 66° |
| 2026-05-05 22:12 | 33.62540 | -115.97991 | 33800 ft | 512 kts | 67° |
| 2026-05-05 22:13 | 33.63917 | -115.94038 | 34088 ft | 513 kts | 68° |
| 2026-05-05 22:13 | 33.65290 | -115.90088 | 34359 ft | 513 kts | 68° |
| 2026-05-05 22:13 | 33.66662 | -115.86146 | 34779 ft | 509 kts | 68° |
| 2026-05-05 22:13 | 33.68029 | -115.82226 | 35163 ft | 507 kts | 68° |
| 2026-05-05 22:14 | 33.69393 | -115.78328 | 35493 ft | 506 kts | 68° |
| 2026-05-05 22:14 | 33.70753 | -115.74433 | 35798 ft | 505 kts | 68° |
| 2026-05-05 22:14 | 33.72107 | -115.70541 | 36090 ft | 505 kts | 68° |
| 2026-05-05 22:14 | 33.73460 | -115.66651 | 36363 ft | 504 kts | 68° |
| 2026-05-05 22:15 | 33.74810 | -115.62765 | 36621 ft | 504 kts | 68° |
| 2026-05-05 22:15 | 33.76158 | -115.58871 | 36779 ft | 506 kts | 68° |
| 2026-05-05 22:15 | 33.77509 | -115.54964 | 36889 ft | 506 kts | 68° |
| 2026-05-05 22:16 | 33.80182 | -115.47229 | 36903 ft | 503 kts | 68° |
| 2026-05-05 22:16 | 33.82856 | -115.39474 | 36903 ft | 502 kts | 68° |
| 2026-05-05 22:17 | 33.85517 | -115.31714 | 36895 ft | 502 kts | 68° |
| 2026-05-05 22:17 | 33.88185 | -115.23920 | 36903 ft | 508 kts | 68° |
| 2026-05-05 22:18 | 33.90901 | -115.15971 | 36888 ft | 519 kts | 68° |
| 2026-05-05 22:18 | 33.93670 | -115.07853 | 36900 ft | 528 kts | 68° |
| 2026-05-05 22:19 | 33.96468 | -114.99657 | 36870 ft | 530 kts | 69° |
| 2026-05-05 22:19 | 33.99273 | -114.91422 | 36887 ft | 532 kts | 69° |
| 2026-05-05 22:20 | 34.02067 | -114.83159 | 36886 ft | 533 kts | 69° |
| 2026-05-05 22:20 | 34.04856 | -114.74883 | 36882 ft | 533 kts | 69° |
| 2026-05-05 22:21 | 34.07644 | -114.66590 | 36888 ft | 534 kts | 69° |
| 2026-05-05 22:21 | 34.10428 | -114.58293 | 36888 ft | 534 kts | 69° |
| 2026-05-05 22:22 | 34.13210 | -114.49975 | 36882 ft | 534 kts | 69° |
| 2026-05-05 22:22 | 34.15989 | -114.41660 | 36881 ft | 534 kts | 69° |
| 2026-05-05 22:23 | 34.18772 | -114.33343 | 36864 ft | 535 kts | 69° |
| 2026-05-05 22:23 | 34.21549 | -114.24997 | 36864 ft | 535 kts | 69° |
| 2026-05-05 22:24 | 34.24296 | -114.16693 | 36864 ft | 536 kts | 69° |
| 2026-05-05 22:24 | 34.27046 | -114.08327 | 36865 ft | 536 kts | 70° |
| 2026-05-05 22:25 | 34.29540 | -113.99826 | 36846 ft | 536 kts | 74° |
| 2026-05-05 22:25 | 34.31798 | -113.91243 | 36865 ft | 536 kts | 74° |
| 2026-05-05 22:26 | 34.34064 | -113.82668 | 36870 ft | 534 kts | 73° |
| 2026-05-05 22:26 | 34.36411 | -113.74137 | 36855 ft | 534 kts | 73° |
| 2026-05-05 22:27 | 34.38781 | -113.65612 | 36852 ft | 535 kts | 73° |
| 2026-05-05 22:27 | 34.41132 | -113.57060 | 36851 ft | 535 kts | 73° |
| 2026-05-05 22:28 | 34.43461 | -113.48492 | 36857 ft | 536 kts | 74° |
| 2026-05-05 22:28 | 34.45779 | -113.39910 | 36850 ft | 536 kts | 74° |
| 2026-05-05 22:29 | 34.48091 | -113.31360 | 36850 ft | 537 kts | 74° |
| 2026-05-05 22:29 | 34.50420 | -113.22743 | 36854 ft | 538 kts | 74° |
| 2026-05-05 22:30 | 34.52742 | -113.14117 | 36855 ft | 538 kts | 74° |
| 2026-05-05 22:30 | 34.55059 | -113.05468 | 36833 ft | 539 kts | 75° |
| 2026-05-05 22:31 | 34.57375 | -112.96791 | 36829 ft | 541 kts | 75° |
| 2026-05-05 22:31 | 34.59682 | -112.88127 | 36832 ft | 542 kts | 75° |
| 2026-05-05 22:32 | 34.61995 | -112.79398 | 36844 ft | 544 kts | 75° |
| 2026-05-05 22:32 | 34.64317 | -112.70643 | 36831 ft | 545 kts | 75° |
| 2026-05-05 22:33 | 34.66631 | -112.61874 | 36843 ft | 546 kts | 75° |
| 2026-05-05 22:33 | 34.68936 | -112.53079 | 36847 ft | 546 kts | 75° |
| 2026-05-05 22:33 | 34.70272 | -112.48750 | 36991 ft | 548 kts | 66° |
| 2026-05-05 22:34 | 34.72106 | -112.44708 | 36970 ft | 549 kts | 56° |
| 2026-05-05 22:34 | 34.76396 | -112.37038 | 36954 ft | 551 kts | 56° |
| 2026-05-05 22:35 | 34.80718 | -112.29252 | 36925 ft | 552 kts | 56° |
| 2026-05-05 22:35 | 34.85008 | -112.21501 | 36903 ft | 553 kts | 56° |
| 2026-05-05 22:36 | 34.89284 | -112.13773 | 36897 ft | 554 kts | 56° |
| 2026-05-05 22:36 | 34.93586 | -112.05980 | 36927 ft | 554 kts | 56° |
| 2026-05-05 22:37 | 34.97882 | -111.98190 | 36944 ft | 553 kts | 56° |
| 2026-05-05 22:37 | 35.02165 | -111.90399 | 36955 ft | 553 kts | 56° |
| 2026-05-05 22:38 | 35.05722 | -111.83905 | 37031 ft | 552 kts | 57° |
| 2026-05-05 22:38 | 35.09985 | -111.76106 | 37057 ft | 553 kts | 56° |
| 2026-05-05 22:39 | 35.14255 | -111.68288 | 37056 ft | 554 kts | 56° |
| 2026-05-05 22:39 | 35.16380 | -111.64360 | 36910 ft | 554 kts | 57° |
| 2026-05-05 22:39 | 35.18466 | -111.60403 | 36906 ft | 554 kts | 58° |
| 2026-05-05 22:40 | 35.22581 | -111.52409 | 36901 ft | 555 kts | 58° |
| 2026-05-05 22:40 | 35.26684 | -111.44401 | 36903 ft | 555 kts | 58° |
| 2026-05-05 22:41 | 35.30779 | -111.36473 | 36892 ft | 552 kts | 58° |
| 2026-05-05 22:41 | 35.34888 | -111.28550 | 36892 ft | 550 kts | 58° |
| 2026-05-05 22:42 | 35.38973 | -111.20648 | 36871 ft | 548 kts | 58° |
| 2026-05-05 22:42 | 35.43040 | -111.12740 | 36839 ft | 548 kts | 58° |
| 2026-05-05 22:43 | 35.47099 | -111.04813 | 36818 ft | 549 kts | 58° |
| 2026-05-05 22:43 | 35.51165 | -110.96862 | 36810 ft | 551 kts | 58° |
| 2026-05-05 22:44 | 35.55239 | -110.88898 | 36815 ft | 551 kts | 58° |
| 2026-05-05 22:44 | 35.59321 | -110.80898 | 36824 ft | 552 kts | 58° |
| 2026-05-05 22:45 | 35.63370 | -110.72929 | 36805 ft | 554 kts | 58° |
| 2026-05-05 22:45 | 35.67445 | -110.64888 | 36848 ft | 554 kts | 58° |
| 2026-05-05 22:46 | 35.71512 | -110.56850 | 36859 ft | 552 kts | 58° |
| 2026-05-05 22:46 | 35.75561 | -110.48831 | 36864 ft | 551 kts | 58° |
| 2026-05-05 22:47 | 35.79599 | -110.40804 | 36857 ft | 551 kts | 58° |
| 2026-05-05 22:47 | 35.83641 | -110.32771 | 36862 ft | 552 kts | 58° |
| 2026-05-05 22:48 | 35.87676 | -110.24719 | 36862 ft | 552 kts | 58° |
| 2026-05-05 22:48 | 35.91705 | -110.16657 | 36865 ft | 552 kts | 58° |
| 2026-05-05 22:49 | 35.95746 | -110.08577 | 36837 ft | 554 kts | 58° |
| 2026-05-05 22:49 | 35.99772 | -110.00464 | 36833 ft | 555 kts | 61° |
| 2026-05-05 22:50 | 36.03212 | -109.91950 | 36859 ft | 553 kts | 65° |
| 2026-05-05 22:50 | 36.06594 | -109.83445 | 36860 ft | 551 kts | 65° |
| 2026-05-05 22:51 | 36.09969 | -109.74952 | 36833 ft | 550 kts | 65° |
| 2026-05-05 22:51 | 36.13336 | -109.66441 | 36835 ft | 551 kts | 65° |
| 2026-05-05 22:52 | 36.16695 | -109.57919 | 36835 ft | 551 kts | 65° |
| 2026-05-05 22:52 | 36.20047 | -109.49399 | 36836 ft | 551 kts | 65° |
| 2026-05-05 22:53 | 36.23399 | -109.40861 | 36805 ft | 552 kts | 65° |
| 2026-05-05 22:53 | 36.26757 | -109.32280 | 36794 ft | 554 kts | 65° |
| 2026-05-05 22:54 | 36.30106 | -109.23721 | 36806 ft | 557 kts | 65° |
| 2026-05-05 22:54 | 36.33476 | -109.15067 | 36816 ft | 558 kts | 65° |
| 2026-05-05 22:55 | 36.36848 | -109.06389 | 36776 ft | 560 kts | 65° |
| 2026-05-05 22:55 | 36.40229 | -108.97658 | 36756 ft | 562 kts | 65° |
| 2026-05-05 22:56 | 36.43614 | -108.88892 | 36803 ft | 563 kts | 65° |
| 2026-05-05 22:56 | 36.46990 | -108.80114 | 36796 ft | 563 kts | 65° |
| 2026-05-05 22:57 | 36.50362 | -108.71328 | 36766 ft | 563 kts | 65° |
| 2026-05-05 22:57 | 36.53737 | -108.62520 | 36768 ft | 564 kts | 65° |
| 2026-05-05 22:58 | 36.57108 | -108.53696 | 36810 ft | 565 kts | 65° |
| 2026-05-05 22:58 | 36.60476 | -108.44866 | 36843 ft | 565 kts | 65° |
| 2026-05-05 22:59 | 36.63836 | -108.36017 | 36852 ft | 567 kts | 66° |
| 2026-05-05 22:59 | 36.67177 | -108.27183 | 36870 ft | 569 kts | 66° |
| 2026-05-05 23:00 | 36.72231 | -108.13799 | 36873 ft | 569 kts | 66° |
| 2026-05-05 23:00 | 36.75591 | -108.04859 | 36859 ft | 570 kts | 66° |
| 2026-05-05 23:01 | 36.78949 | -107.95907 | 36831 ft | 570 kts | 66° |
| 2026-05-05 23:01 | 36.82311 | -107.86928 | 36833 ft | 571 kts | 66° |
| 2026-05-05 23:02 | 36.85659 | -107.77956 | 36834 ft | 569 kts | 65° |
| 2026-05-05 23:02 | 36.88982 | -107.69002 | 36831 ft | 568 kts | 66° |
| 2026-05-05 23:03 | 36.92291 | -107.60039 | 36830 ft | 568 kts | 65° |
| 2026-05-05 23:03 | 36.95602 | -107.51080 | 36819 ft | 567 kts | 66° |
| 2026-05-05 23:04 | 36.98906 | -107.42126 | 36795 ft | 567 kts | 66° |
| 2026-05-05 23:04 | 37.02181 | -107.33215 | 36744 ft | 568 kts | 66° |
| 2026-05-05 23:05 | 37.05476 | -107.24222 | 36745 ft | 568 kts | 66° |
| 2026-05-05 23:05 | 37.08769 | -107.15208 | 36748 ft | 570 kts | 66° |
| 2026-05-05 23:06 | 37.12064 | -107.06176 | 36753 ft | 570 kts | 66° |
| 2026-05-05 23:06 | 37.15358 | -106.97112 | 36753 ft | 572 kts | 66° |
| 2026-05-05 23:07 | 37.18653 | -106.88000 | 36766 ft | 574 kts | 66° |
| 2026-05-05 23:07 | 37.21943 | -106.78877 | 36771 ft | 574 kts | 66° |
| 2026-05-05 23:08 | 37.25237 | -106.69729 | 36744 ft | 575 kts | 66° |
| 2026-05-05 23:08 | 37.28500 | -106.60637 | 36772 ft | 574 kts | 66° |
| 2026-05-05 23:09 | 37.31775 | -106.51486 | 36777 ft | 573 kts | 66° |
| 2026-05-05 23:09 | 37.35044 | -106.42331 | 36761 ft | 573 kts | 66° |
| 2026-05-05 23:10 | 37.38294 | -106.33185 | 36702 ft | 573 kts | 66° |
| 2026-05-05 23:10 | 37.41542 | -106.24018 | 36718 ft | 575 kts | 66° |
| 2026-05-05 23:11 | 37.44792 | -106.14819 | 36706 ft | 576 kts | 66° |
| 2026-05-05 23:11 | 37.48048 | -106.05592 | 36690 ft | 577 kts | 66° |
| 2026-05-05 23:12 | 37.51335 | -105.96368 | 36690 ft | 578 kts | 64° |
| 2026-05-05 23:12 | 37.53096 | -105.91889 | 36847 ft | 579 kts | 62° |
| 2026-05-05 23:12 | 37.54986 | -105.87396 | 36827 ft | 580 kts | 60° |
| 2026-05-05 23:13 | 37.58871 | -105.78479 | 36833 ft | 581 kts | 60° |
| 2026-05-05 23:13 | 37.62675 | -105.69491 | 36753 ft | 580 kts | 62° |
| 2026-05-05 23:14 | 37.66352 | -105.60425 | 36735 ft | 580 kts | 62° |
| 2026-05-05 23:14 | 37.70015 | -105.51331 | 36690 ft | 582 kts | 62° |
| 2026-05-05 23:15 | 37.73727 | -105.42215 | 36757 ft | 582 kts | 62° |
| 2026-05-05 23:15 | 37.77443 | -105.33121 | 36806 ft | 583 kts | 62° |
| 2026-05-05 23:16 | 37.81121 | -105.24065 | 36782 ft | 583 kts | 62° |
| 2026-05-05 23:16 | 37.84813 | -105.14915 | 36829 ft | 584 kts | 62° |
| 2026-05-05 23:17 | 37.88501 | -105.05742 | 36875 ft | 584 kts | 62° |
| 2026-05-05 23:17 | 37.92176 | -104.96581 | 36846 ft | 583 kts | 62° |
| 2026-05-05 23:18 | 37.95864 | -104.87390 | 36894 ft | 584 kts | 62° |
| 2026-05-05 23:18 | 37.99513 | -104.78279 | 36901 ft | 582 kts | 62° |
| 2026-05-05 23:19 | 38.03159 | -104.69124 | 36929 ft | 581 kts | 62° |
| 2026-05-05 23:19 | 38.06792 | -104.59960 | 36941 ft | 580 kts | 62° |
| 2026-05-05 23:20 | 38.10409 | -104.50806 | 36952 ft | 580 kts | 62° |
| 2026-05-05 23:20 | 38.14019 | -104.41657 | 36956 ft | 579 kts | 62° |
| 2026-05-05 23:21 | 38.17630 | -104.32506 | 36953 ft | 579 kts | 62° |
| 2026-05-05 23:21 | 38.21220 | -104.23351 | 36940 ft | 579 kts | 62° |
| 2026-05-05 23:22 | 38.24801 | -104.14177 | 36915 ft | 580 kts | 63° |
| 2026-05-05 23:22 | 38.28388 | -104.04975 | 36955 ft | 580 kts | 63° |
| 2026-05-05 23:23 | 38.31942 | -103.95845 | 36945 ft | 579 kts | 63° |
| 2026-05-05 23:23 | 38.35514 | -103.86649 | 36945 ft | 578 kts | 63° |
| 2026-05-05 23:24 | 38.39070 | -103.77450 | 36925 ft | 579 kts | 63° |
| 2026-05-05 23:24 | 38.42621 | -103.68231 | 36934 ft | 579 kts | 63° |
| 2026-05-05 23:25 | 38.46168 | -103.58991 | 36942 ft | 580 kts | 63° |
| 2026-05-05 23:25 | 38.49708 | -103.49738 | 36943 ft | 580 kts | 63° |
| 2026-05-05 23:26 | 38.53249 | -103.40463 | 36943 ft | 580 kts | 63° |
| 2026-05-05 23:26 | 38.56184 | -103.32750 | 36960 ft | 581 kts | 63° |
| 2026-05-05 23:27 | 38.60293 | -103.21942 | 37003 ft | 581 kts | 63° |
| 2026-05-05 23:27 | 38.63811 | -103.12665 | 36977 ft | 579 kts | 63° |
| 2026-05-05 23:28 | 38.66859 | -103.04977 | 36980 ft | 578 kts | 59° |
| 2026-05-05 23:28 | 38.70902 | -102.96169 | 36978 ft | 577 kts | 56° |
| 2026-05-05 23:29 | 38.75139 | -102.87425 | 36984 ft | 578 kts | 56° |
| 2026-05-05 23:29 | 38.79246 | -102.78569 | 36992 ft | 578 kts | 58° |
| 2026-05-05 23:30 | 38.83242 | -102.69592 | 36981 ft | 579 kts | 58° |
| 2026-05-05 23:30 | 38.87241 | -102.60621 | 36984 ft | 580 kts | 58° |
| 2026-05-05 23:31 | 38.91288 | -102.51648 | 37014 ft | 579 kts | 58° |
| 2026-05-05 23:31 | 38.95287 | -102.42781 | 36984 ft | 576 kts | 58° |
| 2026-05-05 23:32 | 38.99292 | -102.33851 | 36988 ft | 577 kts | 58° |
| 2026-05-05 23:32 | 39.03289 | -102.24885 | 36996 ft | 578 kts | 58° |
| 2026-05-05 23:33 | 39.07281 | -102.15911 | 36999 ft | 578 kts | 58° |
| 2026-05-05 23:33 | 39.11269 | -102.06922 | 37001 ft | 578 kts | 58° |
| 2026-05-05 23:34 | 39.15254 | -101.97922 | 37013 ft | 579 kts | 58° |
| 2026-05-05 23:34 | 39.19241 | -101.88906 | 37015 ft | 579 kts | 59° |
| 2026-05-05 23:35 | 39.23200 | -101.79900 | 37002 ft | 575 kts | 59° |
| 2026-05-05 23:35 | 39.27138 | -101.70919 | 37011 ft | 574 kts | 59° |
| 2026-05-05 23:36 | 39.31050 | -101.61993 | 36998 ft | 575 kts | 59° |
| 2026-05-05 23:36 | 39.34984 | -101.52978 | 36994 ft | 576 kts | 59° |
| 2026-05-05 23:37 | 39.38911 | -101.43938 | 37008 ft | 577 kts | 59° |
| 2026-05-05 23:37 | 39.42843 | -101.34876 | 37012 ft | 578 kts | 59° |
| 2026-05-05 23:38 | 39.46773 | -101.25805 | 37009 ft | 578 kts | 59° |
| 2026-05-05 23:38 | 39.50690 | -101.16718 | 37065 ft | 578 kts | 59° |
| 2026-05-05 23:39 | 39.54602 | -101.07619 | 37059 ft | 578 kts | 59° |
| 2026-05-05 23:39 | 39.58500 | -100.98524 | 37054 ft | 577 kts | 59° |
| 2026-05-05 23:40 | 39.62388 | -100.89418 | 37055 ft | 577 kts | 59° |
| 2026-05-05 23:40 | 39.66273 | -100.80311 | 37068 ft | 577 kts | 59° |
| 2026-05-05 23:41 | 39.70161 | -100.71177 | 37049 ft | 577 kts | 59° |
| 2026-05-05 23:41 | 39.74029 | -100.62043 | 37046 ft | 577 kts | 60° |
| 2026-05-05 23:42 | 39.77865 | -100.52955 | 37073 ft | 577 kts | 59° |
| 2026-05-05 23:42 | 39.81723 | -100.43805 | 37047 ft | 577 kts | 60° |
| 2026-05-05 23:43 | 39.85567 | -100.34649 | 37049 ft | 577 kts | 60° |
| 2026-05-05 23:43 | 39.89402 | -100.25473 | 37053 ft | 576 kts | 60° |
| 2026-05-05 23:44 | 39.93235 | -100.16283 | 37034 ft | 577 kts | 60° |
| 2026-05-05 23:44 | 39.97062 | -100.07090 | 37025 ft | 578 kts | 60° |
| 2026-05-05 23:45 | 40.00690 | -99.97727 | 37024 ft | 579 kts | 69° |
| 2026-05-05 23:45 | 40.03599 | -99.87900 | 37036 ft | 580 kts | 69° |
| 2026-05-05 23:46 | 40.06497 | -99.78067 | 37077 ft | 581 kts | 69° |
| 2026-05-05 23:46 | 40.09389 | -99.68214 | 37062 ft | 581 kts | 69° |
| 2026-05-05 23:47 | 40.12282 | -99.58359 | 37051 ft | 581 kts | 69° |
| 2026-05-05 23:47 | 40.15165 | -99.48504 | 37053 ft | 581 kts | 69° |
| 2026-05-05 23:48 | 40.18024 | -99.38678 | 37039 ft | 581 kts | 69° |
| 2026-05-05 23:48 | 40.20914 | -99.28722 | 37031 ft | 582 kts | 69° |
| 2026-05-05 23:49 | 40.23750 | -99.18865 | 37036 ft | 582 kts | 69° |
| 2026-05-05 23:49 | 40.26598 | -99.08942 | 37024 ft | 583 kts | 69° |
| 2026-05-05 23:50 | 40.29455 | -98.98996 | 37020 ft | 584 kts | 69° |
| 2026-05-05 23:50 | 40.32295 | -98.89035 | 37023 ft | 584 kts | 69° |
| 2026-05-05 23:51 | 40.35134 | -98.79054 | 37018 ft | 584 kts | 70° |
| 2026-05-05 23:51 | 40.37966 | -98.69070 | 37015 ft | 585 kts | 69° |
| 2026-05-05 23:52 | 40.40792 | -98.59056 | 37003 ft | 586 kts | 70° |
| 2026-05-05 23:52 | 40.43607 | -98.49012 | 37009 ft | 587 kts | 70° |
| 2026-05-05 23:53 | 40.46404 | -98.39015 | 37019 ft | 587 kts | 70° |
| 2026-05-05 23:53 | 40.49221 | -98.28946 | 37002 ft | 588 kts | 70° |
| 2026-05-05 23:54 | 40.52025 | -98.18852 | 37005 ft | 589 kts | 70° |
| 2026-05-05 23:54 | 40.54821 | -98.08720 | 37007 ft | 589 kts | 70° |
| 2026-05-05 23:55 | 40.57613 | -97.98576 | 37009 ft | 590 kts | 70° |
| 2026-05-05 23:55 | 40.60410 | -97.88410 | 37011 ft | 591 kts | 70° |
| 2026-05-05 23:56 | 40.63196 | -97.78234 | 37011 ft | 591 kts | 70° |
| 2026-05-05 23:56 | 40.65969 | -97.68034 | 37044 ft | 592 kts | 70° |
| 2026-05-05 23:57 | 40.68730 | -97.57813 | 37035 ft | 592 kts | 70° |
| 2026-05-05 23:57 | 40.71482 | -97.47597 | 37024 ft | 592 kts | 70° |
| 2026-05-05 23:58 | 40.74224 | -97.37424 | 37013 ft | 592 kts | 70° |
| 2026-05-05 23:58 | 40.76973 | -97.27176 | 37007 ft | 592 kts | 70° |
| 2026-05-05 23:59 | 40.79707 | -97.16910 | 37013 ft | 593 kts | 70° |
| 2026-05-05 23:59 | 40.82441 | -97.06631 | 37013 ft | 593 kts | 70° |
| 2026-05-06 00:00 | 40.85158 | -96.96364 | 37008 ft | 593 kts | 70° |
| 2026-05-06 00:00 | 40.87858 | -96.86069 | 37013 ft | 593 kts | 70° |
| 2026-05-06 00:01 | 40.90561 | -96.75764 | 37005 ft | 593 kts | 70° |
| 2026-05-06 00:01 | 40.93242 | -96.65515 | 37003 ft | 594 kts | 70° |
| 2026-05-06 00:02 | 40.95931 | -96.55186 | 36980 ft | 592 kts | 70° |
| 2026-05-06 00:02 | 40.98589 | -96.44899 | 36973 ft | 591 kts | 70° |
| 2026-05-06 00:03 | 41.01247 | -96.34610 | 36982 ft | 591 kts | 70° |
| 2026-05-06 00:03 | 41.03897 | -96.24294 | 36991 ft | 592 kts | 71° |
| 2026-05-06 00:04 | 41.06535 | -96.13948 | 36999 ft | 592 kts | 71° |
| 2026-05-06 00:04 | 41.09180 | -96.03581 | 36974 ft | 593 kts | 70° |
| 2026-05-06 00:05 | 41.13118 | -95.88024 | 36987 ft | 594 kts | 71° |
| 2026-05-06 00:06 | 41.15733 | -95.77630 | 36992 ft | 594 kts | 70° |
| 2026-05-06 00:06 | 41.19258 | -95.67790 | 36985 ft | 589 kts | 56° |
| 2026-05-06 00:07 | 41.23330 | -95.58352 | 36970 ft | 588 kts | 56° |
| 2026-05-06 00:07 | 41.27370 | -95.48932 | 36975 ft | 586 kts | 56° |
| 2026-05-06 00:08 | 41.31398 | -95.39500 | 36986 ft | 587 kts | 56° |
| 2026-05-06 00:08 | 41.35394 | -95.30095 | 36961 ft | 587 kts | 56° |
| 2026-05-06 00:09 | 41.39416 | -95.20608 | 36973 ft | 587 kts | 56° |
| 2026-05-06 00:09 | 41.43432 | -95.11121 | 36980 ft | 588 kts | 56° |
| 2026-05-06 00:10 | 41.47444 | -95.01621 | 36969 ft | 586 kts | 56° |
| 2026-05-06 00:10 | 41.51430 | -94.92149 | 36967 ft | 585 kts | 56° |
| 2026-05-06 00:11 | 41.55412 | -94.82659 | 36974 ft | 586 kts | 56° |
| 2026-05-06 00:11 | 41.59380 | -94.73159 | 36980 ft | 586 kts | 57° |
| 2026-05-06 00:12 | 41.63343 | -94.63631 | 36973 ft | 586 kts | 57° |
| 2026-05-06 00:12 | 41.67294 | -94.54104 | 36950 ft | 586 kts | 56° |
| 2026-05-06 00:13 | 41.70581 | -94.46170 | 36927 ft | 584 kts | 57° |
| 2026-05-06 00:13 | 41.75128 | -94.35129 | 36924 ft | 582 kts | 57° |
| 2026-05-06 00:14 | 41.79040 | -94.25621 | 36937 ft | 583 kts | 57° |
| 2026-05-06 00:14 | 41.82313 | -94.17644 | 36926 ft | 583 kts | 57° |
| 2026-05-06 00:15 | 41.86193 | -94.08164 | 36940 ft | 584 kts | 57° |
| 2026-05-06 00:15 | 41.90119 | -93.98545 | 36946 ft | 584 kts | 57° |
| 2026-05-06 00:16 | 41.93979 | -93.89029 | 36919 ft | 582 kts | 57° |
| 2026-05-06 00:16 | 41.97837 | -93.79486 | 36914 ft | 581 kts | 57° |
| 2026-05-06 00:17 | 42.01688 | -93.69936 | 36930 ft | 581 kts | 57° |
| 2026-05-06 00:17 | 42.05560 | -93.60305 | 36942 ft | 582 kts | 57° |
| 2026-05-06 00:18 | 42.09399 | -93.50710 | 36946 ft | 582 kts | 57° |
| 2026-05-06 00:18 | 42.13185 | -93.41126 | 36946 ft | 582 kts | 58° |
| 2026-05-06 00:19 | 42.16943 | -93.31462 | 36931 ft | 581 kts | 58° |
| 2026-05-06 00:19 | 42.20695 | -93.21820 | 36942 ft | 580 kts | 58° |
| 2026-05-06 00:20 | 42.24447 | -93.12185 | 36949 ft | 580 kts | 58° |
| 2026-05-06 00:20 | 42.28185 | -93.02539 | 36952 ft | 580 kts | 58° |
| 2026-05-06 00:21 | 42.31921 | -92.92874 | 36951 ft | 580 kts | 58° |
| 2026-05-06 00:21 | 42.35646 | -92.83202 | 36950 ft | 580 kts | 58° |
| 2026-05-06 00:22 | 42.39360 | -92.73504 | 36921 ft | 578 kts | 58° |
| 2026-05-06 00:22 | 42.43030 | -92.63908 | 36926 ft | 577 kts | 58° |
| 2026-05-06 00:23 | 42.46717 | -92.54248 | 36941 ft | 577 kts | 58° |
| 2026-05-06 00:23 | 42.50395 | -92.44569 | 36935 ft | 578 kts | 58° |
| 2026-05-06 00:24 | 42.54061 | -92.34864 | 36947 ft | 578 kts | 58° |
| 2026-05-06 00:24 | 42.57719 | -92.25153 | 36917 ft | 578 kts | 58° |
| 2026-05-06 00:25 | 42.61377 | -92.15424 | 36910 ft | 576 kts | 59° |
| 2026-05-06 00:25 | 42.63991 | -92.05094 | 36915 ft | 583 kts | 79° |
| 2026-05-06 00:26 | 42.64763 | -91.94129 | 36924 ft | 583 kts | 86° |
| 2026-05-06 00:26 | 42.65334 | -91.83137 | 36916 ft | 584 kts | 86° |